Time;durP1;ratioP1;P1;durP2;ratioP2;P2;SDS_P1;SDS_P2;PMS_P1;PMS_P2;Temp;Humidity;BMP_temperature;BMP_pressure;BME280_temperature;BME280_humidity;BME280_pressure;Samples;Min_cycle;Max_cycle;Signal;HPM_P1;HPM_P2
2022/01/19 00:00:20;;;;;;;2.10;1.20;;;;;;;18.72;51.37;98057.31;10454193;28;20068;-21
2022/01/19 00:05:22;;;;;;;2.25;1.10;;;;;;;18.69;51.31;98034.44;10427664;28;20112;-21
2022/01/19 00:10:27;;;;;;;2.65;1.20;;;;;;;18.71;50.85;98005.75;10412040;28;20041;-21
2022/01/19 00:15:28;;;;;;;1.67;1.23;;;;;;;18.73;51.10;97980.38;10412917;28;20515;-21
2022/01/19 00:20:31;;;;;;;1.00;0.95;;;;;;;18.73;50.99;97957.53;10437859;28;20067;-21
2022/01/19 00:25:32;;;;;;;4.88;1.42;;;;;;;18.74;50.93;97954.22;10451420;28;20032;-21
2022/01/19 00:30:32;;;;;;;4.07;1.90;;;;;;;18.76;51.09;97975.38;10453687;28;20079;-21
2022/01/19 00:35:36;;;;;;;2.40;1.08;;;;;;;18.76;51.02;97972.84;10434868;28;20127;-21
2022/01/19 00:40:38;;;;;;;1.60;1.10;;;;;;;18.72;50.96;97973.59;10412238;28;20030;-21
2022/01/19 00:45:39;;;;;;;2.25;1.10;;;;;;;18.71;50.93;97955.00;10411286;28;20037;-21
2022/01/19 00:50:39;;;;;;;2.13;1.10;;;;;;;18.71;50.98;97942.31;10440821;28;20033;-21
2022/01/19 00:55:40;;;;;;;2.83;1.03;;;;;;;18.70;51.17;97937.19;10438872;28;20288;-21
2022/01/19 01:00:41;;;;;;;4.65;0.93;;;;;;;18.66;51.17;97940.53;10410387;28;20029;-21
2022/01/19 01:05:42;;;;;;;1.65;0.98;;;;;;;18.72;51.10;97927.94;10425630;28;20037;-21
2022/01/19 01:10:44;;;;;;;2.28;1.10;;;;;;;18.71;50.82;97937.25;10441485;28;20232;-21
2022/01/19 01:16:00;;;;;;;5.55;1.25;;;;;;;18.69;51.17;97917.75;10450474;28;20407;-21
2022/01/19 01:21:01;;;;;;;2.88;1.35;;;;;;;18.69;51.00;97911.00;10414046;28;20029;-21
2022/01/19 01:26:04;;;;;;;2.13;1.08;;;;;;;18.70;50.93;97899.16;10425173;28;20049;-21
2022/01/19 01:31:07;;;;;;;1.85;1.17;;;;;;;18.69;51.05;97898.31;10449361;28;20036;-21
2022/01/19 01:36:08;;;;;;;1.13;0.88;;;;;;;18.71;51.04;97916.06;10445622;28;20029;-21
2022/01/19 01:41:13;;;;;;;2.72;0.98;;;;;;;18.69;50.98;97931.28;10447262;28;20124;-21
2022/01/19 01:46:34;;;;;;;7.95;1.33;;;;;;;18.74;51.00;97921.22;10449896;28;20036;-21
2022/01/19 01:56:55;;;;;;;2.72;1.25;;;;;;;18.71;51.19;97906.81;10434302;28;20032;-21
2022/01/19 02:01:55;;;;;;;2.30;1.40;;;;;;;18.71;51.24;97896.66;10450348;28;20090;-21
2022/01/19 02:22:41;;;;;;;4.28;1.20;;;;;;;18.70;51.06;97851.81;10417357;28;20029;-21
2022/01/19 02:43:38;;;;;;;3.70;1.33;;;;;;;18.66;51.21;97813.69;10451351;28;20039;-21
2022/01/19 02:53:57;;;;;;;1.58;0.75;;;;;;;18.72;50.89;97803.63;10416069;28;20033;-21
2022/01/19 02:59:11;;;;;;;3.13;1.10;;;;;;;18.70;51.17;97792.59;10454056;28;20546;-21
2022/01/19 03:09:30;;;;;;;1.67;0.90;;;;;;;18.67;51.17;97767.19;10416322;28;20672;-21
2022/01/19 03:14:32;;;;;;;1.27;0.75;;;;;;;18.67;50.90;97764.66;10455308;28;20029;-21
2022/01/19 03:19:33;;;;;;;1.37;1.00;;;;;;;18.68;51.06;97768.91;10450653;28;20025;-21
2022/01/19 03:24:38;;;;;;;1.50;0.85;;;;;;;18.65;51.54;97764.63;10416324;28;20021;-21
2022/01/19 03:29:38;;;;;;;2.05;1.00;;;;;;;18.67;51.21;97762.97;10454383;28;20045;-21
2022/01/19 03:34:40;;;;;;;0.90;0.67;;;;;;;18.67;51.18;97757.06;10448662;28;20037;-21
2022/01/19 03:39:41;;;;;;;3.53;0.95;;;;;;;18.68;50.89;97749.44;10452886;28;20366;-21
2022/01/19 03:44:43;;;;;;;2.38;1.30;;;;;;;18.71;51.01;97748.66;10454198;28;20036;-23
2022/01/19 03:49:44;;;;;;;1.33;1.00;;;;;;;18.69;50.91;97735.09;10435263;28;20037;-21
2022/01/19 03:54:45;;;;;;;1.40;1.10;;;;;;;18.70;50.86;97731.72;10412461;28;20181;-21
2022/01/19 03:59:46;;;;;;;2.88;1.17;;;;;;;18.69;50.79;97735.97;10412079;28;20021;-21
2022/01/19 04:04:58;;;;;;;1.80;0.70;;;;;;;18.71;50.91;97733.41;10422934;28;20411;-21
2022/01/19 04:09:59;;;;;;;1.52;1.05;;;;;;;18.69;50.91;97725.81;10443721;28;20040;-21
2022/01/19 04:15:00;;;;;;;2.00;1.10;;;;;;;18.67;51.02;97716.47;10453273;28;20389;-21
2022/01/19 04:20:00;;;;;;;0.70;0.70;;;;;;;18.67;50.87;97713.94;10426971;28;20459;-21
2022/01/19 04:25:02;;;;;;;1.02;0.82;;;;;;;18.68;51.00;97708.84;10417599;28;20115;-21
2022/01/19 04:30:09;;;;;;;1.88;0.88;;;;;;;18.64;51.22;97696.09;10452146;28;20388;-21
2022/01/19 04:35:25;;;;;;;1.25;0.82;;;;;;;18.67;50.83;97697.00;10450887;28;20032;-23
2022/01/19 04:44:04;;;;;;;1.20;0.80;;;;;;;18.71;50.84;97681.00;10441498;28;20030;-21
2022/01/19 05:01:56;;;;;;;1.80;0.80;;;;;;;18.79;50.76;97693.78;10408328;28;20087;-21
2022/01/19 05:07:19;;;;;;;4.10;0.90;;;;;;;18.80;50.57;97698.03;10409987;28;20091;-21
2022/01/19 05:17:39;;;;;;;3.67;0.82;;;;;;;18.74;50.64;97677.69;10450860;28;20048;-21
2022/01/19 05:22:40;;;;;;;2.45;0.80;;;;;;;18.81;50.61;97695.53;10397799;28;20682;-21
2022/01/19 05:27:48;;;;;;;1.83;0.90;;;;;;;18.81;50.71;97692.13;10398232;28;20496;-21
2022/01/19 05:32:48;;;;;;;3.07;1.40;;;;;;;18.79;50.73;97693.78;10448760;28;20037;-22
2022/01/19 05:37:49;;;;;;;2.20;1.23;;;;;;;18.75;51.19;97681.91;10448157;28;20029;-21
2022/01/19 05:43:01;;;;;;;4.53;1.30;;;;;;;18.73;51.11;97670.88;10417532;28;20397;-20
2022/01/19 05:48:02;;;;;;;4.47;1.42;;;;;;;18.76;51.23;97686.16;10408106;28;20034;-21
2022/01/19 05:53:04;;;;;;;6.20;1.40;;;;;;;18.74;51.39;97688.66;10441789;28;20028;-21
2022/01/19 05:58:05;;;;;;;7.88;2.03;;;;;;;18.77;51.32;97677.72;10415510;28;20037;-21
2022/01/19 06:03:05;;;;;;;5.97;1.35;;;;;;;18.81;51.35;97674.38;10407491;28;20025;-21
2022/01/19 06:13:41;;;;;;;6.67;1.77;;;;;;;18.73;50.48;97675.94;10403669;28;20043;-21
2022/01/19 06:18:42;;;;;;;11.88;1.98;;;;;;;18.76;50.83;97674.31;10371425;28;20021;-21
2022/01/19 06:23:43;;;;;;;6.22;1.67;;;;;;;18.76;51.01;97661.63;10414502;28;20034;-21
2022/01/19 06:28:46;;;;;;;8.40;1.83;;;;;;;18.73;51.41;97660.72;10430538;28;20034;-21
2022/01/19 06:33:46;;;;;;;10.27;2.35;;;;;;;18.56;51.78;97631.72;10427089;28;20518;-21
2022/01/19 06:38:48;;;;;;;8.02;2.22;;;;;;;18.53;51.52;97649.44;10453605;28;20057;-21
2022/01/19 06:44:02;;;;;;;9.63;2.30;;;;;;;18.37;46.10;97645.00;10454816;28;20059;-20
2022/01/19 06:49:03;;;;;;;10.93;2.40;;;;;;;18.55;51.16;97651.19;10454208;28;20047;-21
2022/01/19 06:54:06;;;;;;;8.40;1.80;;;;;;;18.62;51.28;97644.50;10455078;28;20086;-21
2022/01/19 06:59:11;;;;;;;8.65;2.35;;;;;;;18.62;51.12;97647.91;10455308;28;20368;-22
2022/01/19 07:04:23;;;;;;;13.52;1.67;;;;;;;18.60;51.48;97633.50;10454621;28;20036;-21
2022/01/19 07:09:24;;;;;;;9.45;1.85;;;;;;;18.64;51.48;97640.31;10445360;28;21818;-21
2022/01/19 07:14:26;;;;;;;5.75;1.30;;;;;;;18.66;51.20;97636.13;10455310;28;20174;-21
2022/01/19 07:19:30;;;;;;;5.88;1.65;;;;;;;18.64;51.45;97625.09;10453435;28;20063;-21
2022/01/19 07:24:32;;;;;;;4.15;1.50;;;;;;;18.64;51.29;97620.88;10453265;28;20591;-22
2022/01/19 07:29:32;;;;;;;5.20;1.42;;;;;;;18.63;51.38;97619.19;10454106;28;20029;-21
2022/01/19 07:34:34;;;;;;;4.60;1.42;;;;;;;18.63;51.42;97619.19;10439363;28;20059;-21
2022/01/19 07:39:39;;;;;;;5.47;2.30;;;;;;;18.62;51.49;97614.94;10415946;28;20082;-21
2022/01/19 07:44:39;;;;;;;3.78;1.10;;;;;;;18.50;51.52;97603.78;10453917;28;20614;-20
2022/01/19 07:49:58;;;;;;;4.28;1.45;;;;;;;18.63;51.49;97636.06;10431771;28;20045;-21
2022/01/19 07:55:13;;;;;;;3.50;1.20;;;;;;;18.64;51.25;97635.22;10420575;28;20432;-21
2022/01/19 08:00:36;;;;;;;3.28;1.50;;;;;;;18.62;51.24;97627.63;10454696;28;20055;-21
2022/01/19 08:05:56;;;;;;;7.03;1.20;;;;;;;18.67;51.01;97636.13;10453660;28;20040;-21
2022/01/19 08:10:57;;;;;;;6.43;1.70;;;;;;;18.69;51.07;97643.78;10443034;28;20044;-21
2022/01/19 08:15:57;;;;;;;3.10;1.27;;;;;;;18.68;51.17;97642.91;10453275;28;20059;-22
2022/01/19 08:20:59;;;;;;;3.08;1.00;;;;;;;18.68;50.80;97647.16;10423705;28;20431;-21
2022/01/19 08:26:09;;;;;;;3.55;1.20;;;;;;;18.67;51.10;97645.44;10427919;28;20033;-21
2022/01/19 08:31:09;;;;;;;4.63;0.95;;;;;;;18.65;50.89;97642.88;10451996;28;20505;-21
2022/01/19 08:36:28;;;;;;;3.55;1.25;;;;;;;18.67;51.13;97640.38;10451954;28;20040;-22
2022/01/19 08:41:52;;;;;;;2.67;1.10;;;;;;;18.67;51.03;97647.97;10427494;28;20033;-21
2022/01/19 08:46:53;;;;;;;2.08;1.17;;;;;;;18.66;51.19;97658.97;10409204;28;20026;-21
2022/01/19 08:52:16;;;;;;;1.60;0.90;;;;;;;18.63;51.21;97651.28;10443883;28;20049;-21
2022/01/19 08:57:20;;;;;;;4.00;0.93;;;;;;;18.70;50.96;97655.63;10449693;28;20170;-21
2022/01/19 09:02:21;;;;;;;2.28;1.00;;;;;;;18.70;50.70;97656.47;10444953;28;20022;-21
2022/01/19 09:07:21;;;;;;;1.83;1.00;;;;;;;18.68;50.78;97652.22;10410727;28;20037;-20
2022/01/19 09:12:22;;;;;;;1.88;0.90;;;;;;;18.67;50.77;97651.34;10436413;28;20048;-21
2022/01/19 09:17:22;;;;;;;2.37;1.00;;;;;;;18.67;50.68;97651.34;10452012;28;20037;-20
2022/01/19 09:22:22;;;;;;;5.68;1.08;;;;;;;18.68;50.76;97664.91;10423458;28;20030;-21
2022/01/19 09:27:23;;;;;;;1.80;0.80;;;;;;;18.67;50.70;97650.50;10410219;28;20420;-21
2022/01/19 09:32:24;;;;;;;2.70;1.10;;;;;;;18.66;50.48;97656.44;10412084;28;20025;-21
2022/01/19 09:37:25;;;;;;;1.50;0.70;;;;;;;18.65;50.75;97658.09;10450937;28;20292;-21
2022/01/19 09:42:25;;;;;;;2.60;1.20;;;;;;;18.67;50.63;97660.66;10449874;28;20025;-21
2022/01/19 09:47:26;;;;;;;0.93;0.83;;;;;;;18.69;50.55;97653.91;10449556;28;20043;-21
2022/01/19 09:52:27;;;;;;;2.50;0.77;;;;;;;18.56;50.80;97636.81;10450485;28;20514;-21
2022/01/19 09:57:27;;;;;;;1.10;0.70;;;;;;;18.67;50.66;97653.88;10421582;28;20300;-21
2022/01/19 10:02:27;;;;;;;1.97;1.20;;;;;;;18.66;50.86;97659.78;10409170;28;20485;-21
2022/01/19 10:07:28;;;;;;;2.10;1.13;;;;;;;18.66;50.81;97661.50;10445054;28;20484;-21
2022/01/19 10:18:13;;;;;;;1.10;0.73;;;;;;;18.50;50.94;97631.66;10450143;28;20064;-21
2022/01/19 10:23:36;;;;;;;2.70;0.80;;;;;;;18.58;51.05;97636.00;10408654;28;20033;-21
2022/01/19 10:28:57;;;;;;;1.13;0.90;;;;;;;18.55;51.17;97633.44;10444258;28;20033;-21
2022/01/19 10:34:22;;;;;;;1.75;0.95;;;;;;;18.62;50.99;97644.50;10447789;28;20032;-22
2022/01/19 10:39:37;;;;;;;1.02;0.60;;;;;;;18.59;51.08;97645.31;10447651;28;20029;-21
2022/01/19 10:44:43;;;;;;;1.40;0.60;;;;;;;18.60;51.15;97663.94;10448899;28;20045;-21
2022/01/19 10:49:55;;;;;;;2.10;1.10;;;;;;;18.61;51.13;97661.44;10433026;28;20598;-21
2022/01/19 10:54:57;;;;;;;1.58;1.02;;;;;;;18.62;51.20;97667.34;10413703;28;20045;-21
2022/01/19 11:00:18;;;;;;;0.98;0.60;;;;;;;18.59;51.31;97667.31;10448904;28;20470;-21
2022/01/19 11:05:46;;;;;;;1.70;0.93;;;;;;;18.59;51.31;97663.06;10420579;28;20463;-21
2022/01/19 11:10:53;;;;;;;1.17;0.70;;;;;;;18.59;51.59;97636.88;10427294;28;20140;-21
2022/01/19 11:15:54;;;;;;;;;;;;;;;18.60;51.48;97629.25;10456920;28;20403;-21
2022/01/19 11:20:56;;;;;;;1.08;0.73;;;;;;;18.63;51.14;97618.31;10437629;28;19913;-22
2022/01/19 11:26:01;;;;;;;3.17;1.00;;;;;;;18.64;51.65;97602.25;10428725;28;20114;-21
2022/01/19 11:31:09;;;;;;;1.13;0.80;;;;;;;18.62;51.51;97601.41;10456231;28;20380;-21
2022/01/19 11:36:34;;;;;;;1.88;0.80;;;;;;;18.69;51.42;97601.50;10454883;28;20105;-21
2022/01/19 11:41:46;;;;;;;4.03;1.20;;;;;;;18.67;51.34;97584.56;10434913;28;20109;-21
2022/01/19 11:46:50;;;;;;;3.72;2.45;;;;;;;18.64;51.55;97584.50;10414412;28;20041;-21
2022/01/19 11:51:55;;;;;;;5.78;3.50;;;;;;;18.64;51.58;97589.56;10438079;28;20029;-21
2022/01/19 11:56:58;;;;;;;8.85;4.13;;;;;;;18.63;51.52;97577.72;10431610;28;20037;-20
2022/01/19 12:02:20;;;;;;;10.05;6.75;;;;;;;18.61;51.71;97559.13;10413594;28;20029;-21
2022/01/19 12:07:37;;;;;;;15.05;9.73;;;;;;;18.66;51.38;97557.50;10439915;28;20040;-21
2022/01/19 12:12:45;;;;;;;18.55;9.48;;;;;;;18.68;51.38;97545.69;10416624;28;20038;-22
2022/01/19 12:17:54;;;;;;;13.88;10.10;;;;;;;18.70;51.14;97524.59;10411305;28;20045;-21
2022/01/19 12:23:29;;;;;;;18.55;10.57;;;;;;;18.66;50.84;97517.75;10372084;28;20041;-21
2022/01/19 12:28:49;;;;;;;13.82;9.05;;;;;;;18.62;50.98;97513.50;10407381;28;20052;-21
2022/01/19 12:34:08;;;;;;;15.10;8.00;;;;;;;18.62;50.54;97500.81;10422626;28;20495;-21
2022/01/19 12:39:27;;;;;;;13.27;7.07;;;;;;;18.62;50.57;97499.94;10452089;28;20079;-21
2022/01/19 12:44:46;;;;;;;11.02;6.70;;;;;;;18.50;50.59;97477.00;10371051;28;20034;-21
2022/01/19 12:49:46;;;;;;;13.35;6.70;;;;;;;18.59;50.69;97483.00;10404203;28;20626;-21
2022/01/19 12:54:47;;;;;;;13.13;6.53;;;;;;;18.61;50.77;97485.56;10446465;28;20863;-21
2022/01/19 12:59:50;;;;;;;9.38;6.05;;;;;;;18.61;50.76;97467.81;10411319;28;20030;-21
2022/01/19 13:04:51;;;;;;;8.18;6.07;;;;;;;18.64;50.55;97477.97;10422356;28;20032;-21
2022/01/19 13:10:10;;;;;;;9.23;5.80;;;;;;;18.64;50.97;97467.84;10441708;28;20041;-21
2022/01/19 13:15:11;;;;;;;9.15;6.20;;;;;;;18.58;51.07;97452.56;10451750;28;20501;-21
2022/01/19 13:20:15;;;;;;;8.68;5.80;;;;;;;18.61;50.92;97452.59;10449849;28;20064;-22
2022/01/19 13:25:25;;;;;;;8.27;6.30;;;;;;;18.70;50.85;97460.28;10441684;28;20025;-22
2022/01/19 13:30:28;;;;;;;8.20;6.22;;;;;;;18.65;51.17;97465.31;10409094;28;20389;-22
2022/01/19 13:35:29;;;;;;;11.13;5.63;;;;;;;18.66;51.43;97471.25;10410141;28;20063;-22
2022/01/19 13:40:31;;;;;;;8.05;5.30;;;;;;;18.70;51.09;97467.91;10409875;28;20033;-22
2022/01/19 13:45:48;;;;;;;16.23;6.40;;;;;;;18.49;51.21;97422.03;10409363;28;20112;-21
2022/01/19 13:50:53;;;;;;;14.50;7.80;;;;;;;18.63;51.36;97471.22;10426952;28;20033;-22
2022/01/19 13:55:57;;;;;;;14.45;8.35;;;;;;;18.63;51.42;97474.59;10449115;28;20102;-22
2022/01/19 14:01:00;;;;;;;18.05;8.40;;;;;;;18.68;51.38;97472.13;10450605;28;20033;-21
2022/01/19 14:06:00;;;;;;;14.57;8.48;;;;;;;18.54;51.32;97454.22;10417066;28;20408;-22
2022/01/19 14:11:01;;;;;;;17.73;7.33;;;;;;;18.68;50.64;97479.72;10408559;28;20037;-22
2022/01/19 14:16:25;;;;;;;16.33;8.10;;;;;;;18.70;51.45;97483.13;10408776;28;20068;-22
2022/01/19 14:21:26;;;;;;;18.95;7.80;;;;;;;18.72;51.36;97481.44;10426832;28;20395;-22
2022/01/19 14:26:27;;;;;;;17.67;7.53;;;;;;;18.64;51.78;97480.50;10447807;28;20039;-22
2022/01/19 14:31:27;;;;;;;16.05;6.75;;;;;;;18.61;51.91;97483.91;10449288;28;20057;-22
2022/01/19 14:36:28;;;;;;;13.45;7.38;;;;;;;18.62;52.00;97484.72;10448071;28;20059;-22
2022/01/19 14:41:31;;;;;;;16.00;8.33;;;;;;;18.57;52.23;97471.16;10409434;28;20037;-22
2022/01/19 14:46:55;;;;;;;17.52;8.88;;;;;;;18.58;52.27;97472.84;10390166;28;20064;-22
2022/01/19 14:51:56;;;;;;;17.25;8.63;;;;;;;18.52;52.21;97444.88;10370595;28;20516;-22
2022/01/19 14:56:56;;;;;;;15.77;9.35;;;;;;;18.58;52.65;97461.00;10380767;28;20447;-22
2022/01/19 15:01:59;;;;;;;17.20;9.73;;;;;;;18.60;52.30;97461.03;10403844;28;20041;-21
2022/01/19 15:07:02;;;;;;;17.27;9.63;;;;;;;18.64;52.37;97465.28;10421270;28;20087;-22
2022/01/19 15:12:03;;;;;;;13.80;8.27;;;;;;;18.56;52.06;97454.22;10437721;28;20052;-21
2022/01/19 15:17:03;;;;;;;12.80;8.15;;;;;;;18.60;52.00;97456.78;10457255;28;20047;-22
2022/01/19 15:22:04;;;;;;;13.52;8.95;;;;;;;18.62;52.01;97474.59;10414892;28;20558;-22
2022/01/19 15:27:04;;;;;;;15.05;8.65;;;;;;;18.62;51.87;97464.44;10399029;28;20048;-21
2022/01/19 15:32:05;;;;;;;21.23;9.20;;;;;;;18.64;52.02;97457.69;10377422;28;20033;-22
2022/01/19 15:37:06;;;;;;;14.95;8.32;;;;;;;18.56;52.01;97442.41;10374909;28;20249;-21
2022/01/19 15:42:07;;;;;;;20.83;8.60;;;;;;;18.58;52.17;97462.72;10388986;28;20029;-22
2022/01/19 15:47:07;;;;;;;13.20;8.05;;;;;;;18.57;52.01;97466.09;10369289;28;20301;-22
2022/01/19 15:52:08;;;;;;;12.98;7.80;;;;;;;18.54;52.20;97464.38;10382510;28;20034;-22
2022/01/19 15:57:08;;;;;;;17.92;7.85;;;;;;;18.60;51.96;97458.50;10421320;28;20095;-22
2022/01/19 16:02:09;;;;;;;12.37;7.90;;;;;;;18.58;51.69;97462.72;10451274;28;20033;-21
2022/01/19 16:07:10;;;;;;;10.37;7.60;;;;;;;18.57;51.79;97451.69;10413443;28;20048;-21
2022/01/19 16:12:11;;;;;;;13.52;7.30;;;;;;;18.56;52.09;97449.16;10412892;28;20330;-22
2022/01/19 16:17:11;;;;;;;11.93;7.97;;;;;;;18.56;51.92;97452.53;10412927;28;20033;-22
2022/01/19 16:26:07;;;;;;;11.60;7.30;;;;;;;18.56;51.94;97455.06;10437690;28;20495;-22
2022/01/19 16:27:35;;;;;;;10.55;7.70;;;;;;;18.57;51.88;97451.69;10424341;28;20486;-22
2022/01/19 16:32:36;;;;;;;10.77;7.90;;;;;;;18.54;51.88;97453.34;10414150;28;20047;-22
2022/01/19 16:37:36;;;;;;;8.93;6.95;;;;;;;18.56;51.87;97451.69;10452136;28;20044;-22
2022/01/19 16:42:37;;;;;;;10.55;6.53;;;;;;;18.52;52.32;97449.97;10427288;28;20044;-21
2022/01/19 16:47:43;;;;;;;11.70;6.88;;;;;;;18.57;51.69;97440.72;10452977;28;20033;-21
2022/01/19 16:52:43;;;;;;;11.63;6.80;;;;;;;18.64;51.64;97443.34;10440398;28;20129;-21
2022/01/19 16:57:45;;;;;;;13.77;7.03;;;;;;;18.63;51.90;97443.31;10440189;28;20500;-22
2022/01/19 17:02:46;;;;;;;10.35;7.22;;;;;;;18.65;51.91;97434.88;10451623;28;20064;-22
2022/01/19 17:07:47;;;;;;;12.77;6.63;;;;;;;18.68;51.84;97446.75;10410819;28;20075;-21
2022/01/19 17:12:48;;;;;;;11.40;6.20;;;;;;;18.76;51.88;97432.47;10439879;28;20043;-21
2022/01/19 17:17:52;;;;;;;12.32;6.78;;;;;;;18.83;51.82;97417.31;10450640;28;20044;-22
2022/01/19 17:22:57;;;;;;;13.00;6.47;;;;;;;18.89;51.79;97419.06;10408707;28;20488;-21
2022/01/19 17:27:58;;;;;;;10.68;6.20;;;;;;;19.00;51.52;97408.16;10440030;28;20441;-21
2022/01/19 17:32:59;;;;;;;8.40;5.70;;;;;;;18.98;51.51;97404.78;10450967;28;20115;-21
2022/01/19 17:37:59;;;;;;;7.88;5.47;;;;;;;19.15;51.23;97413.38;10449289;28;20341;-21
2022/01/19 17:42:59;;;;;;;10.23;5.82;;;;;;;19.13;51.34;97409.13;10417065;28;20483;-21
2022/01/19 17:48:11;;;;;;;8.57;5.87;;;;;;;19.14;51.40;97420.97;10390536;28;20491;-21
2022/01/19 17:53:15;;;;;;;13.30;6.25;;;;;;;19.01;51.58;97409.03;10382556;28;20825;-22
2022/01/19 17:58:16;;;;;;;11.45;6.97;;;;;;;19.00;51.98;97409.88;10401282;28;20534;-21
2022/01/19 18:03:17;;;;;;;8.77;6.15;;;;;;;19.06;51.71;97417.50;10409797;28;20479;-22
2022/01/19 18:08:17;;;;;;;10.77;5.53;;;;;;;19.06;51.76;97432.75;10446432;28;20032;-21
2022/01/19 18:13:18;;;;;;;13.98;5.85;;;;;;;18.98;51.92;97429.28;10408102;28;20296;-22
2022/01/19 18:18:18;;;;;;;10.02;5.97;;;;;;;18.99;52.15;97431.00;10421282;28;20116;-21
2022/01/19 18:23:19;;;;;;;10.13;6.20;;;;;;;18.91;51.98;97423.31;10450600;28;20084;-21
2022/01/19 18:28:19;;;;;;;17.87;6.00;;;;;;;18.99;52.07;97434.38;10414291;28;20488;-21
2022/01/19 18:33:20;;;;;;;10.95;6.18;;;;;;;18.99;52.00;97448.78;10415938;28;20472;-21
2022/01/19 18:38:22;;;;;;;16.53;6.07;;;;;;;18.97;51.64;97445.34;10447694;28;20033;-21
2022/01/19 18:43:24;;;;;;;15.02;5.78;;;;;;;18.94;51.86;97447.88;10409114;28;20312;-21
2022/01/19 18:48:25;;;;;;;14.82;6.32;;;;;;;18.91;52.08;97452.94;10380589;28;20543;-22
2022/01/19 18:53:25;;;;;;;9.45;5.78;;;;;;;18.87;52.26;97446.09;10412692;28;20042;-22
2022/01/19 18:58:26;;;;;;;11.63;5.28;;;;;;;18.85;52.22;97452.84;10384556;28;20124;-22
2022/01/19 19:03:27;;;;;;;9.90;6.07;;;;;;;18.86;52.51;97444.41;10369504;28;20029;-21
2022/01/19 19:08:28;;;;;;;8.82;4.88;;;;;;;18.84;52.48;97453.69;10401557;28;20500;-21
2022/01/19 19:13:28;;;;;;;8.32;5.35;;;;;;;18.83;52.23;97450.28;10399577;28;20082;-22
2022/01/19 19:18:29;;;;;;;10.55;5.55;;;;;;;18.82;51.92;97437.63;10379207;28;20066;-21
2022/01/19 19:23:29;;;;;;;17.85;5.85;;;;;;;18.78;52.14;97446.00;10415346;28;20159;-21
2022/01/19 19:28:30;;;;;;;13.67;5.00;;;;;;;18.83;51.95;97444.38;10410355;28;20037;-21
2022/01/19 19:33:30;;;;;;;9.40;5.20;;;;;;;18.80;51.70;97440.13;10406171;28;20042;-21
2022/01/19 19:38:32;;;;;;;9.37;5.33;;;;;;;18.74;52.11;97440.06;10380050;28;20285;-21
2022/01/19 19:43:34;;;;;;;11.85;6.30;;;;;;;18.79;52.04;97453.66;10396209;28;20065;-21
2022/01/19 19:48:34;;;;;;;11.25;5.70;;;;;;;18.78;52.27;97451.94;10399825;28;20071;-21
2022/01/19 19:53:35;;;;;;;10.57;6.13;;;;;;;18.79;52.16;97452.78;10390565;28;20129;-21
2022/01/19 19:58:36;;;;;;;11.90;6.50;;;;;;;18.76;51.89;97427.41;10391496;28;20033;-21
2022/01/19 20:03:39;;;;;;;9.73;6.40;;;;;;;18.80;52.07;97434.19;10387248;28;20046;-21
2022/01/19 20:08:41;;;;;;;17.35;10.57;;;;;;;18.81;52.21;97430.81;10371131;28;20049;-22
2022/01/19 20:13:42;;;;;;;21.95;13.63;;;;;;;18.77;52.40;97418.94;10386799;28;20042;-21
2022/01/19 20:18:44;;;;;;;27.50;16.05;;;;;;;18.80;52.59;97413.88;10381168;28;20496;-21
2022/01/19 20:23:46;;;;;;;31.45;17.70;;;;;;;18.70;52.58;97407.03;10388984;28;20060;-22
2022/01/19 20:28:47;;;;;;;31.60;17.95;;;;;;;18.76;52.67;97422.31;10389795;28;20045;-22
2022/01/19 20:33:47;;;;;;;35.65;20.38;;;;;;;18.76;52.82;97428.22;10391105;28;20572;-22
2022/01/19 20:38:49;;;;;;;33.63;18.13;;;;;;;18.77;52.57;97441.78;10400751;28;20064;-22
2022/01/19 20:43:50;;;;;;;36.92;20.45;;;;;;;18.76;52.97;97453.59;10414171;28;20041;-22
2022/01/19 20:48:50;;;;;;;42.00;21.55;;;;;;;18.76;53.08;97460.38;10407526;28;20489;-22
2022/01/19 20:53:51;;;;;;;38.97;22.37;;;;;;;18.77;53.45;97449.38;10405533;28;20045;-21
2022/01/19 20:58:52;;;;;;;43.92;23.10;;;;;;;18.77;53.39;97467.16;10409201;28;20295;-22
2022/01/19 21:03:54;;;;;;;45.75;23.35;;;;;;;18.77;53.31;97449.38;10406571;28;20446;-22
2022/01/19 21:08:54;;;;;;;45.13;24.17;;;;;;;18.75;53.50;97456.13;10407586;28;20493;-22
2022/01/19 21:13:58;;;;;;;45.65;24.48;;;;;;;18.74;54.01;97451.91;10402579;28;20045;-22
2022/01/19 21:18:58;;;;;;;42.67;23.23;;;;;;;18.74;53.98;97456.97;10391135;28;20400;-22
2022/01/19 21:23:59;;;;;;;47.78;25.05;;;;;;;18.74;53.88;97455.28;10400742;28;20040;-22
2022/01/19 21:28:59;;;;;;;44.03;23.70;;;;;;;18.76;53.48;97452.75;10401881;28;20546;-21
2022/01/19 21:33:59;;;;;;;39.17;20.50;;;;;;;18.78;53.09;97454.50;10392812;28;20033;-21
2022/01/19 21:39:00;;;;;;;35.93;21.57;;;;;;;18.77;53.09;97464.59;10392851;28;20025;-22
2022/01/19 21:44:00;;;;;;;35.65;19.58;;;;;;;18.73;52.83;97447.63;10428902;28;20378;-22
2022/01/19 21:49:01;;;;;;;38.03;20.23;;;;;;;18.71;52.71;97414.66;10402950;28;20550;-22
2022/01/19 21:54:02;;;;;;;31.00;17.30;;;;;;;18.74;52.61;97413.84;10408643;28;20378;-21
2022/01/19 21:59:03;;;;;;;32.05;18.08;;;;;;;18.73;52.51;97401.97;10395175;28;20302;-22
2022/01/19 22:04:04;;;;;;;31.08;17.52;;;;;;;18.72;52.47;97398.59;10398937;28;20026;-22
2022/01/19 22:09:11;;;;;;;30.35;16.23;;;;;;;18.71;52.85;97409.59;10384297;28;20030;-22
2022/01/19 22:14:12;;;;;;;28.15;16.88;;;;;;;18.72;53.14;97420.56;10449580;28;20039;-21
2022/01/19 22:19:13;;;;;;;28.08;14.82;;;;;;;18.72;53.21;97423.09;10443461;28;20607;-22
2022/01/19 22:24:15;;;;;;;29.45;16.67;;;;;;;18.72;53.24;97440.88;10408218;28;20037;-22
2022/01/19 22:29:16;;;;;;;32.00;17.60;;;;;;;18.69;53.37;97440.84;10367882;28;20526;-23
2022/01/19 22:34:17;;;;;;;26.42;15.27;;;;;;;18.68;53.55;97429.84;10397095;28;20041;-22
2022/01/19 22:39:21;;;;;;;29.88;15.55;;;;;;;18.67;53.72;97428.13;10448210;28;20072;-22
2022/01/19 22:44:23;;;;;;;24.83;14.25;;;;;;;18.69;53.83;97445.91;10408166;28;20554;-22
2022/01/19 22:49:24;;;;;;;27.73;15.32;;;;;;;18.66;53.96;97445.91;10414430;28;20118;-22
2022/01/19 22:54:24;;;;;;;24.35;14.23;;;;;;;18.66;53.90;97446.72;10446024;28;20072;-22
2022/01/19 22:59:25;;;;;;;27.15;15.30;;;;;;;18.66;54.05;97461.13;10407888;28;20041;-21
2022/01/19 23:04:25;;;;;;;24.13;13.85;;;;;;;18.69;53.88;97466.22;10431460;28;20037;-22
2022/01/19 23:09:26;;;;;;;21.20;13.90;;;;;;;18.69;54.07;97461.13;10453298;28;20035;-22
2022/01/19 23:14:26;;;;;;;24.83;15.00;;;;;;;18.67;53.93;97457.75;10415427;28;20283;-22
2022/01/19 23:19:26;;;;;;;23.40;12.98;;;;;;;18.58;53.94;97453.41;10423884;28;20291;-22
2022/01/19 23:24:27;;;;;;;23.48;12.85;;;;;;;18.66;54.00;97478.88;10454795;28;20811;-21
2022/01/19 23:29:28;;;;;;;26.43;14.23;;;;;;;18.66;53.72;97486.47;10456121;28;20128;-21
2022/01/19 23:34:34;;;;;;;20.88;12.43;;;;;;;18.61;54.00;97470.34;10453740;28;20025;-22
2022/01/19 23:40:24;;;;;;;24.13;12.95;;;;;;;18.63;54.13;97471.22;10454234;28;20083;-21
2022/01/19 23:50:32;;;;;;;18.92;12.32;;;;;;;18.64;54.16;97466.16;10420785;28;20033;-22
2022/01/19 23:55:33;;;;;;;25.55;12.70;;;;;;;18.65;54.16;97478.00;10453706;28;20037;-22
